createdAt,value
2023-05-13T00:02:16.404Z,10.20
2023-05-13T00:08:20.155Z,10.10
2023-05-13T00:14:22.520Z,10.00
2023-05-13T00:20:25.042Z,10.00
2023-05-13T00:26:27.441Z,9.90
2023-05-13T00:32:29.888Z,10.00
2023-05-13T00:38:32.871Z,10.00
2023-05-13T00:44:35.599Z,10.00
2023-05-13T00:50:39.392Z,9.80
2023-05-13T00:56:41.853Z,9.60
2023-05-13T01:02:57.769Z,9.50
2023-05-13T01:09:18.844Z,9.30
2023-05-13T01:15:25.811Z,9.10
2023-05-13T01:21:29.093Z,9.10
2023-05-13T01:27:31.849Z,9.10
2023-05-13T01:33:36.876Z,9.10
2023-05-13T01:39:43.147Z,9.10
2023-05-13T01:45:49.122Z,9.00
2023-05-13T01:51:52.153Z,8.90
2023-05-13T01:57:54.768Z,8.70
2023-05-13T02:04:00.113Z,8.60
2023-05-13T02:10:02.925Z,8.50
2023-05-13T02:16:07.881Z,8.40
2023-05-13T02:22:10.307Z,8.30
2023-05-13T02:28:13.449Z,8.40
2023-05-13T02:34:17.162Z,8.30
2023-05-13T02:40:19.998Z,8.40
2023-05-13T02:46:23.698Z,8.20
2023-05-13T02:52:27.635Z,8.10
2023-05-13T02:58:30.075Z,7.90
2023-05-13T03:04:33.855Z,7.90
2023-05-13T03:10:36.439Z,7.90
2023-05-13T03:16:39.148Z,7.90
2023-05-13T03:22:42.238Z,7.90
2023-05-13T03:28:44.972Z,7.80
2023-05-13T03:34:48.493Z,7.80
2023-05-13T03:40:52.349Z,7.80
2023-05-13T03:46:55.224Z,7.80
2023-05-13T03:52:57.859Z,7.90
2023-05-13T03:59:00.429Z,8.20
2023-05-13T04:05:03.397Z,8.30
2023-05-13T04:11:06.076Z,8.60
2023-05-13T04:17:08.665Z,8.90
2023-05-13T04:23:11.170Z,9.20
2023-05-13T04:29:13.712Z,9.60
2023-05-13T04:35:17.297Z,10.20
2023-05-13T04:41:22.440Z,11.00
2023-05-13T04:47:25.009Z,11.60
2023-05-13T04:53:29.276Z,12.60
2023-05-13T04:59:35.708Z,12.10
2023-05-13T05:05:38.059Z,11.90
2023-05-13T05:11:41.266Z,11.80
2023-05-13T05:17:44.645Z,11.90
2023-05-13T05:23:47.421Z,12.00
2023-05-13T05:29:49.989Z,12.20
2023-05-13T05:35:52.700Z,12.60
2023-05-13T05:41:56.984Z,13.00
2023-05-13T05:47:59.445Z,13.20
2023-05-13T05:54:02.058Z,13.40
2023-05-13T06:00:05.647Z,13.20
2023-05-13T06:06:17.262Z,13.20
2023-05-13T06:12:20.350Z,13.80
2023-05-13T06:18:22.921Z,14.30
2023-05-13T06:24:25.490Z,14.70
2023-05-13T06:30:27.952Z,14.90
2023-05-13T06:36:30.358Z,15.10
2023-05-13T06:42:32.832Z,15.50
2023-05-13T06:48:36.595Z,15.30
2023-05-13T06:54:40.468Z,14.80
2023-05-13T07:00:43.316Z,14.60
2023-05-13T07:06:45.720Z,14.60
2023-05-13T07:12:48.026Z,15.30
2023-05-13T07:18:51.030Z,16.10
2023-05-13T07:24:53.872Z,16.50
2023-05-13T07:30:56.648Z,16.10
2023-05-13T07:36:59.049Z,15.90
2023-05-13T07:43:02.106Z,15.80
2023-05-13T07:49:06.543Z,16.10
2023-05-13T07:55:10.814Z,16.20
2023-05-13T08:01:13.144Z,16.00
2023-05-13T08:07:15.640Z,15.90
2023-05-13T08:13:17.942Z,16.20
2023-05-13T08:19:21.844Z,16.40
2023-05-13T08:25:24.572Z,16.60
2023-05-13T08:31:26.937Z,17.40
2023-05-13T08:37:29.262Z,18.20
2023-05-13T08:43:33.089Z,18.90
2023-05-13T08:49:35.788Z,19.30
2023-05-13T08:55:40.380Z,19.60
2023-05-13T09:01:43.600Z,19.80
2023-05-13T09:07:46.022Z,20.00
2023-05-13T09:14:02.752Z,20.20
2023-05-13T09:20:12.957Z,20.60
2023-05-13T09:26:29.059Z,20.90
2023-05-13T09:32:31.968Z,20.90
2023-05-13T09:38:39.073Z,20.50
2023-05-13T09:44:42.384Z,19.80
2023-05-13T09:50:49.896Z,19.40
2023-05-13T09:56:58.741Z,19.20
2023-05-13T10:03:02.393Z,19.80
2023-05-13T10:09:08.633Z,20.10
2023-05-13T10:15:11.193Z,20.20
2023-05-13T10:21:14.309Z,20.80
2023-05-13T10:27:17.866Z,21.80
2023-05-13T10:33:21.130Z,22.80
2023-05-13T10:39:38.394Z,22.60
2023-05-13T10:45:47.850Z,22.00
2023-05-13T10:51:50.972Z,21.60
2023-05-13T10:58:13.323Z,21.20
2023-05-13T11:04:17.924Z,20.90
2023-05-13T11:10:29.881Z,21.80
2023-05-13T11:16:33.245Z,23.00
2023-05-13T11:22:36.971Z,23.70
2023-05-13T11:29:05.152Z,24.00
2023-05-13T11:35:07.677Z,24.30
2023-05-13T11:41:10.347Z,24.40
2023-05-13T11:47:12.984Z,24.70
2023-05-13T11:53:21.193Z,25.20
2023-05-13T11:59:23.789Z,25.10
2023-05-13T12:05:26.759Z,25.00
2023-05-13T12:11:29.437Z,24.00
2023-05-13T12:17:32.325Z,22.90
2023-05-13T12:23:43.368Z,22.50
2023-05-13T12:29:45.712Z,23.00
2023-05-13T12:35:53.393Z,23.30
2023-05-13T12:41:56.682Z,23.30
2023-05-13T12:48:00.147Z,23.50
2023-05-13T12:54:02.612Z,23.50
2023-05-13T13:00:06.086Z,23.50
2023-05-13T13:06:09.029Z,23.20
2023-05-13T13:12:11.241Z,23.20
2023-05-13T13:18:13.579Z,23.40
2023-05-13T13:24:15.855Z,23.50
2023-05-13T13:30:18.129Z,23.60
2023-05-13T13:36:20.764Z,22.00
2023-05-13T13:42:25.146Z,21.70
2023-05-13T13:48:33.391Z,22.20
2023-05-13T13:54:35.692Z,22.70
2023-05-13T14:00:38.063Z,22.90
2023-05-13T14:06:40.781Z,23.20
2023-05-13T14:12:43.103Z,23.00
2023-05-13T14:18:45.385Z,23.10
2023-05-13T14:24:47.916Z,22.90
2023-05-13T14:30:50.187Z,22.60
2023-05-13T14:36:52.421Z,22.80
2023-05-13T14:42:55.949Z,22.60
2023-05-13T14:48:58.213Z,22.00
2023-05-13T14:55:00.451Z,22.70
2023-05-13T15:01:02.957Z,23.30
2023-05-13T15:07:05.641Z,22.80
2023-05-13T15:13:08.021Z,22.40
2023-05-13T15:19:10.447Z,22.80
2023-05-13T15:25:12.809Z,23.30
2023-05-13T15:31:15.198Z,23.80
2023-05-13T15:37:17.499Z,23.00
2023-05-13T15:43:19.889Z,22.40
2023-05-13T15:49:22.824Z,23.70
2023-05-13T15:55:25.395Z,24.50
2023-05-13T16:01:27.787Z,25.20
2023-05-13T16:07:30.063Z,25.10
2023-05-13T16:13:32.354Z,24.70
2023-05-13T16:19:34.677Z,24.10
2023-05-13T16:25:38.455Z,24.10
2023-05-13T16:31:40.863Z,25.20
2023-05-13T16:43:45.935Z,26.80
2023-05-13T16:49:50.017Z,26.20
2023-05-13T16:55:52.575Z,25.20
2023-05-13T17:01:55.101Z,23.60
2023-05-13T17:07:57.439Z,22.90
2023-05-13T17:13:59.754Z,23.60
2023-05-13T17:20:02.137Z,23.00
2023-05-13T17:26:04.425Z,22.70
2023-05-13T17:32:06.969Z,22.50
2023-05-13T17:38:09.230Z,22.00
2023-05-13T17:44:11.589Z,21.40
2023-05-13T17:50:14.955Z,21.00
2023-05-13T17:56:17.337Z,20.70
2023-05-13T18:02:19.767Z,20.10
2023-05-13T18:08:22.235Z,19.40
2023-05-13T18:14:24.718Z,19.00
2023-05-13T18:20:27.075Z,18.50
2023-05-13T18:26:29.692Z,18.00
2023-05-13T18:32:32.079Z,17.60
2023-05-13T18:38:34.520Z,17.20
2023-05-13T18:44:36.879Z,17.00
2023-05-13T18:50:39.323Z,16.70
2023-05-13T18:56:42.377Z,16.50
2023-05-13T19:02:44.858Z,16.30
2023-05-13T19:08:47.369Z,16.20
2023-05-13T19:14:49.745Z,16.00
2023-05-13T19:20:52.084Z,15.70
2023-05-13T19:26:54.908Z,15.40
2023-05-13T19:32:57.345Z,15.00
2023-05-13T19:38:59.977Z,14.70
2023-05-13T19:45:06.414Z,14.20
2023-05-13T19:51:08.861Z,13.90
2023-05-13T19:57:11.498Z,13.30
2023-05-13T20:03:16.647Z,12.90
2023-05-13T20:09:19.294Z,12.70
2023-05-13T20:15:46.827Z,12.20
2023-05-13T20:21:49.325Z,11.90
2023-05-13T20:27:51.805Z,11.60
2023-05-13T20:33:54.563Z,11.40
2023-05-13T20:40:09.358Z,11.30
2023-05-13T20:46:17.683Z,11.10
2023-05-13T20:52:22.944Z,11.10
2023-05-13T20:58:26.350Z,10.90
2023-05-13T21:04:28.872Z,10.70
2023-05-13T21:10:31.601Z,10.60
2023-05-13T21:16:36.404Z,10.40
2023-05-13T21:22:38.919Z,10.40
2023-05-13T21:28:41.497Z,10.30
2023-05-13T21:34:43.894Z,10.50
2023-05-13T21:40:46.365Z,10.30
2023-05-13T21:46:48.724Z,10.10
2023-05-13T21:52:51.650Z,10.00
2023-05-13T21:58:54.072Z,9.80
2023-05-13T22:04:56.568Z,9.80
2023-05-13T22:11:00.278Z,9.70
2023-05-13T22:17:09.570Z,9.70
2023-05-13T22:23:12.550Z,9.60
2023-05-13T22:29:18.283Z,9.70
2023-05-13T22:35:20.892Z,9.60
2023-05-13T22:41:24.213Z,9.60
2023-05-13T22:47:26.683Z,9.40
2023-05-13T22:53:29.210Z,9.30
2023-05-13T22:59:31.554Z,9.30
2023-05-13T23:05:34.055Z,9.20
2023-05-13T23:11:36.961Z,9.20
2023-05-13T23:17:42.596Z,9.20
2023-05-13T23:23:44.938Z,9.20
2023-05-13T23:29:47.286Z,9.10
2023-05-13T23:35:55.656Z,8.90
2023-05-13T23:41:58.021Z,8.70
2023-05-13T23:48:00.590Z,8.70
2023-05-13T23:54:03.129Z,8.70
